createdAt,value
2018-09-14T00:01:53.252Z,9.90
2018-09-14T00:04:22.032Z,9.07
2018-09-14T00:06:51.232Z,9.43
2018-09-14T00:09:19.536Z,9.37
2018-09-14T00:11:47.874Z,8.27
2018-09-14T00:14:16.262Z,10.93
2018-09-14T00:16:44.518Z,10.13
2018-09-14T00:19:12.904Z,12.00
2018-09-14T00:21:41.192Z,9.70
2018-09-14T00:24:09.504Z,10.77
2018-09-14T00:26:37.828Z,10.50
2018-09-14T00:29:06.132Z,9.30
2018-09-14T00:31:34.444Z,9.07
2018-09-14T00:34:02.764Z,10.20
2018-09-14T00:36:31.120Z,8.97
2018-09-14T00:38:59.430Z,9.63
2018-09-14T00:41:27.768Z,9.03
2018-09-14T00:43:56.106Z,10.40
2018-09-14T00:46:24.476Z,9.50
2018-09-14T00:48:52.786Z,9.43
2018-09-14T00:51:21.119Z,10.17
2018-09-14T00:53:49.471Z,9.33
2018-09-14T00:56:17.834Z,10.23
2018-09-14T01:01:16.041Z,7.90
2018-09-14T01:03:44.412Z,7.97
2018-09-14T01:06:12.748Z,7.33
2018-09-14T01:08:41.375Z,7.57
2018-09-14T01:11:09.764Z,7.70
2018-09-14T01:13:38.122Z,8.10
2018-09-14T01:16:06.825Z,8.97
2018-09-14T01:18:35.228Z,8.08
2018-09-14T01:21:03.502Z,7.40
2018-09-14T01:23:31.858Z,8.30
2018-09-14T10:19:43.839Z,4.87
2018-09-14T10:22:12.135Z,5.40
2018-09-14T10:24:40.481Z,5.08
2018-09-14T10:27:08.783Z,4.22
2018-09-14T10:29:37.091Z,4.55
2018-09-14T10:32:05.392Z,4.53
2018-09-14T10:34:33.772Z,5.05
2018-09-14T10:37:02.154Z,4.05
2018-09-14T10:39:30.368Z,4.17
2018-09-14T10:41:58.680Z,4.28
2018-09-14T10:44:26.998Z,3.92
2018-09-14T10:46:55.325Z,3.42
2018-09-14T10:49:23.649Z,3.85
2018-09-14T10:51:52.003Z,4.05
2018-09-14T10:54:20.277Z,3.62
2018-09-14T10:56:48.944Z,3.45
2018-09-14T10:59:17.235Z,4.83
2018-09-14T11:01:45.552Z,3.70
2018-09-14T11:04:13.831Z,3.37
2018-09-14T11:06:42.408Z,2.80
2018-09-14T11:09:12.616Z,3.58
2018-09-14T11:11:40.923Z,3.33
2018-09-14T11:14:09.355Z,3.47
2018-09-14T11:16:37.640Z,4.42
2018-09-14T11:19:05.940Z,5.15
2018-09-14T11:21:34.667Z,4.58
2018-09-14T11:24:03.064Z,4.50
2018-09-14T11:26:31.397Z,4.40
2018-09-14T11:28:59.684Z,5.28
2018-09-14T11:31:28.764Z,6.17
2018-09-14T11:33:57.772Z,5.87
2018-09-14T11:36:26.499Z,3.92
2018-09-14T11:38:54.892Z,4.12
2018-09-14T11:41:23.227Z,3.12
2018-09-14T11:43:51.847Z,3.33
2018-09-14T11:46:20.800Z,3.08
2018-09-14T11:48:49.722Z,3.62
2018-09-14T11:51:18.079Z,3.85
2018-09-14T11:53:46.395Z,4.67
2018-09-14T11:56:14.668Z,3.60
2018-09-14T11:58:43.045Z,3.67
2018-09-14T12:01:11.389Z,3.08
2018-09-14T12:03:39.672Z,2.80
2018-09-14T12:06:07.985Z,2.70
2018-09-14T12:08:36.319Z,2.80
2018-09-14T12:11:04.703Z,2.92
2018-09-14T12:13:33.055Z,3.77
2018-09-14T12:16:01.372Z,2.95
2018-09-14T12:18:29.659Z,2.85
2018-09-14T12:20:57.950Z,3.17
2018-09-14T12:23:26.320Z,2.60
2018-09-14T12:25:54.642Z,3.00
2018-09-14T12:28:22.997Z,7.10
2018-09-14T12:30:51.242Z,2.65
2018-09-14T12:33:19.542Z,4.97
2018-09-14T12:35:47.887Z,5.72
2018-09-14T12:38:16.120Z,3.30
2018-09-14T12:40:44.532Z,3.08
2018-09-14T12:43:12.865Z,2.72
2018-09-14T12:45:41.131Z,2.22
2018-09-14T12:48:09.420Z,3.05
2018-09-14T12:50:37.767Z,2.25
2018-09-14T12:53:06.065Z,3.33
2018-09-14T12:55:34.381Z,2.98
2018-09-14T12:58:02.773Z,5.22
2018-09-14T13:00:31.116Z,2.92
2018-09-14T13:02:59.428Z,2.80
2018-09-14T13:05:27.724Z,2.65
2018-09-14T13:07:56.020Z,3.33
2018-09-14T13:10:24.321Z,3.37
2018-09-14T13:12:52.571Z,2.98
2018-09-14T13:15:20.838Z,3.27
2018-09-14T13:17:49.164Z,4.00
2018-09-14T13:20:17.519Z,3.65
2018-09-14T13:22:45.811Z,3.47
2018-09-14T13:25:14.163Z,3.67
2018-09-14T13:27:42.499Z,3.00
2018-09-14T13:30:10.794Z,3.50
2018-09-14T13:32:40.271Z,3.08
2018-09-14T13:35:08.568Z,3.20
2018-09-14T13:37:36.873Z,2.62
2018-09-14T13:40:05.304Z,2.60
2018-09-14T13:42:33.598Z,2.60
2018-09-14T13:45:02.249Z,2.80
2018-09-14T13:47:30.662Z,2.92
2018-09-14T13:50:00.476Z,3.22
2018-09-14T13:52:29.009Z,2.20
2018-09-14T13:54:57.277Z,3.52
2018-09-14T13:57:25.576Z,2.95
2018-09-14T13:59:54.114Z,3.62
2018-09-14T14:02:22.624Z,2.42
2018-09-14T14:04:51.157Z,3.05
2018-09-14T14:07:21.438Z,2.35
2018-09-14T14:09:49.946Z,2.37
2018-09-14T14:12:18.821Z,2.47
2018-09-14T14:14:47.491Z,2.70
2018-09-14T14:17:16.040Z,3.40
2018-09-14T14:19:45.165Z,2.72
2018-09-14T14:22:13.472Z,3.02
2018-09-14T14:24:42.521Z,3.60
2018-09-14T14:27:11.301Z,3.30
2018-09-14T14:38:21.581Z,2.33
2018-09-14T14:40:49.925Z,2.50
2018-09-14T14:43:19.429Z,2.33
2018-09-14T14:45:48.021Z,6.22
2018-09-14T14:48:17.076Z,3.08
2018-09-14T14:50:45.340Z,9.60
2018-09-14T14:53:13.655Z,6.85
2018-09-14T14:55:43.276Z,2.35
2018-09-14T14:58:11.759Z,2.20
2018-09-14T15:00:40.371Z,2.50
2018-09-14T15:03:10.199Z,2.62
2018-09-14T15:05:39.376Z,2.40
2018-09-14T15:08:07.858Z,2.33
2018-09-14T15:10:36.350Z,3.05
2018-09-14T15:13:04.763Z,2.95
2018-09-14T15:15:33.097Z,3.10
2018-09-14T15:18:01.379Z,2.30
2018-09-14T15:20:29.674Z,3.35
2018-09-14T15:22:57.972Z,2.62
2018-09-14T15:25:26.423Z,2.30
2018-09-14T15:27:55.409Z,2.77
2018-09-14T15:30:24.197Z,3.27
2018-09-14T15:32:52.719Z,2.25
2018-09-14T15:35:21.790Z,2.52
2018-09-14T15:37:51.809Z,2.52
2018-09-14T15:40:23.121Z,2.20
2018-09-14T15:42:52.082Z,2.30
2018-09-14T15:45:20.384Z,2.85
2018-09-14T15:47:48.688Z,3.20
2018-09-14T15:50:17.011Z,3.05
2018-09-14T15:52:45.478Z,4.22
2018-09-14T15:55:13.786Z,3.02
2018-09-14T15:57:42.097Z,2.40
2018-09-14T16:00:10.483Z,2.98
2018-09-14T16:02:38.806Z,2.42
2018-09-14T16:05:07.109Z,2.50
2018-09-14T16:07:36.640Z,2.30
2018-09-14T16:10:04.995Z,2.35
2018-09-14T16:12:33.365Z,2.42
2018-09-14T16:15:01.680Z,2.60
2018-09-14T16:17:30.023Z,3.08
2018-09-14T16:19:58.340Z,2.52
2018-09-14T16:22:26.629Z,2.40
2018-09-14T16:24:54.940Z,2.85
2018-09-14T16:27:23.300Z,2.27
2018-09-14T16:29:51.655Z,2.92
2018-09-14T16:32:19.998Z,3.05
2018-09-14T16:34:48.328Z,3.20
2018-09-14T16:37:16.671Z,3.37
2018-09-14T16:39:44.964Z,2.15
2018-09-14T16:42:13.322Z,2.47
2018-09-14T16:44:42.013Z,2.80
2018-09-14T16:47:10.831Z,2.90
2018-09-14T16:49:39.405Z,2.85
2018-09-14T16:52:07.677Z,2.70
2018-09-14T16:54:36.261Z,2.83
2018-09-14T16:57:04.652Z,2.85
2018-09-14T16:59:33.009Z,2.90
2018-09-14T17:02:01.330Z,2.90
2018-09-14T17:04:29.908Z,2.67
2018-09-14T17:06:58.226Z,2.65
2018-09-14T17:09:26.619Z,2.83
2018-09-14T17:11:54.941Z,2.52
2018-09-14T17:14:23.280Z,2.75
2018-09-14T17:16:51.674Z,2.58
2018-09-14T17:19:19.990Z,2.40
2018-09-14T17:21:48.256Z,2.62
2018-09-14T17:24:16.539Z,2.92
2018-09-14T17:26:44.820Z,3.37
2018-09-14T17:29:13.165Z,2.75
2018-09-14T17:50:01.979Z,3.75
2018-09-14T17:52:30.283Z,3.35
2018-09-14T17:54:58.644Z,3.80
2018-09-14T17:57:26.995Z,4.33
2018-09-14T17:59:55.346Z,4.20
2018-09-14T18:02:23.649Z,4.28
2018-09-14T18:04:51.966Z,3.85
2018-09-14T18:07:20.276Z,4.72
2018-09-14T18:09:48.685Z,6.53
2018-09-14T18:12:17.113Z,5.37
2018-09-14T18:14:45.407Z,4.60
2018-09-14T18:17:13.795Z,5.47
2018-09-14T18:19:42.108Z,4.72
2018-09-14T18:22:10.785Z,4.25
2018-09-14T18:24:39.097Z,4.72
2018-09-14T18:27:07.419Z,4.03
2018-09-14T18:29:35.781Z,4.55
2018-09-14T18:32:04.099Z,5.25
2018-09-14T18:34:32.370Z,5.45
2018-09-14T18:37:00.856Z,4.72
2018-09-14T18:39:29.304Z,7.95
2018-09-14T18:41:57.686Z,4.67
2018-09-14T18:44:26.145Z,8.05
2018-09-14T18:46:54.632Z,7.00
2018-09-14T18:49:23.057Z,4.87
2018-09-14T18:51:51.441Z,6.22
2018-09-14T18:54:19.889Z,7.15
2018-09-14T18:56:48.557Z,6.35
2018-09-14T18:59:16.969Z,4.00
2018-09-14T19:01:45.452Z,5.35
2018-09-14T19:04:14.087Z,4.25
2018-09-14T19:06:42.438Z,4.62
2018-09-14T22:15:22.636Z,10.93
2018-09-14T22:17:50.951Z,12.80
2018-09-14T22:20:19.242Z,9.65
2018-09-14T22:22:51.837Z,9.10
2018-09-14T22:25:20.177Z,7.72
2018-09-14T22:27:48.655Z,9.63
2018-09-14T22:30:16.993Z,8.98
2018-09-14T22:32:45.381Z,7.22
2018-09-14T22:35:13.715Z,11.05
2018-09-14T22:37:42.108Z,8.48
2018-09-14T22:40:10.488Z,12.30
2018-09-14T22:42:38.866Z,9.25
2018-09-14T22:45:07.194Z,10.38
2018-09-14T22:47:35.467Z,6.97
2018-09-14T22:50:04.158Z,10.28
2018-09-14T22:52:32.676Z,7.33
2018-09-14T22:57:53.691Z,10.13
2018-09-14T23:01:31.054Z,11.55
2018-09-14T23:03:59.349Z,14.98
2018-09-14T23:06:27.643Z,13.98
2018-09-14T23:08:55.959Z,18.42
2018-09-14T23:48:01.956Z,12.90
2018-09-14T23:50:31.068Z,11.90
2018-09-14T23:52:59.823Z,12.63
2018-09-14T23:55:28.375Z,12.55
2018-09-14T23:57:56.993Z,13.45
